Erie, Kansas
Current Conditions -  °F | °C
As of 3:52 AM on Monday 26 Jan 2015 (Local Time) from KCNU Reporting Station
Clear Clear  
Wind Chill: -6°   Ceiling: Unl
Heat Index: -3°   Visibility: 10mi
Dew Point: -4°   Wind: 6mph
Humidity: 92%   Direction: 280°W
Pressure: 30.12"   Gusts: NA
Location:  37.57°N, 95.24°W
Report Text: KCNU 260952Z AUTO 28005KT 10SM CLR M03/M04 A3012 RMK AO2 SLP204 T10281039
Loading
Personal Weather Stations






























Interactive Weather Map New forecast layout! Learn more

10-Day Weather Forecast

Advertisements
Track Severe Weather on mobile